createdAt,value
2019-04-07T00:03:40.063Z,62.90
2019-04-07T00:08:48.654Z,62.08
2019-04-07T00:13:56.355Z,62.76
2019-04-07T00:19:02.016Z,62.73
2019-04-07T00:24:08.311Z,61.82
2019-04-07T00:29:14.465Z,62.61
2019-04-07T00:34:20.552Z,62.54
2019-04-07T00:39:28.956Z,62.62
2019-04-07T00:44:34.599Z,63.01
2019-04-07T00:49:45.412Z,63.07
2019-04-07T00:54:54.543Z,62.69
2019-04-07T01:00:10.595Z,62.32
2019-04-07T01:05:16.891Z,62.92
2019-04-07T01:10:24.217Z,62.90
2019-04-07T01:15:33.080Z,63.00
2019-04-07T01:20:38.826Z,62.93
2019-04-07T01:25:47.326Z,62.92
2019-04-07T01:30:53.413Z,63.06
2019-04-07T01:35:59.830Z,63.17
2019-04-07T01:41:18.616Z,62.23
2019-04-07T01:46:35.375Z,63.15
2019-04-07T01:51:58.643Z,63.55
2019-04-07T01:57:27.038Z,63.31
2019-04-07T02:02:54.545Z,63.25
2019-04-07T02:08:15.787Z,63.15
2019-04-07T02:13:47.259Z,63.15
2019-04-07T02:19:19.012Z,63.78
2019-04-07T02:24:37.446Z,62.70
2019-04-07T02:30:21.706Z,63.60
2019-04-07T02:35:37.798Z,63.85
2019-04-07T02:40:59.899Z,64.03
2019-04-07T02:46:27.024Z,63.58
2019-04-07T02:51:45.498Z,63.15
2019-04-07T02:57:14.219Z,63.87
2019-04-07T03:02:49.621Z,63.57
2019-04-07T03:08:23.832Z,63.96
2019-04-07T03:13:52.509Z,63.84
2019-04-07T03:19:19.287Z,64.74
2019-04-07T03:24:30.547Z,63.41
2019-04-07T03:29:56.686Z,64.16
2019-04-07T03:35:17.246Z,64.11
2019-04-07T03:40:31.922Z,64.99
2019-04-07T03:45:53.924Z,64.59
2019-04-07T03:51:17.317Z,63.77
2019-04-07T03:56:54.117Z,64.42
2019-04-07T04:02:18.553Z,64.45
2019-04-07T04:07:36.615Z,64.23
2019-04-07T04:13:09.097Z,64.48
2019-04-07T04:18:16.212Z,63.75
2019-04-07T04:23:23.210Z,63.47
2019-04-07T04:28:29.175Z,64.07
2019-04-07T04:33:35.994Z,64.01
2019-04-07T04:38:42.389Z,63.91
2019-04-07T04:43:48.058Z,63.94
2019-04-07T04:48:56.648Z,64.81
2019-04-07T04:54:01.341Z,64.37
2019-04-07T04:59:14.871Z,63.54
2019-04-07T05:04:20.797Z,63.42
2019-04-07T05:09:41.880Z,63.33
2019-04-07T05:14:41.245Z,62.61
2019-04-07T05:19:47.685Z,62.60
2019-04-07T05:24:55.562Z,62.97
2019-04-07T05:30:02.376Z,62.10
2019-04-07T05:35:10.500Z,60.71
2019-04-07T05:40:16.885Z,60.29
2019-04-07T05:45:23.861Z,60.21
2019-04-07T05:50:30.667Z,59.89
2019-04-07T05:55:37.212Z,58.94
2019-04-07T06:00:45.753Z,59.19
2019-04-07T06:05:52.833Z,59.25
2019-04-07T06:11:01.539Z,58.04
2019-04-07T06:16:13.127Z,56.72
2019-04-07T06:21:19.225Z,57.42
2019-04-07T06:26:28.291Z,57.30
2019-04-07T06:31:34.817Z,57.47
2019-04-07T06:36:40.851Z,58.19
2019-04-07T06:41:47.630Z,56.13
2019-04-07T06:47:05.502Z,54.96
2019-04-07T06:52:34.687Z,55.40
2019-04-07T06:57:54.986Z,53.30
2019-04-07T07:03:14.866Z,54.10
2019-04-07T07:08:45.720Z,52.35
2019-04-07T07:14:14.416Z,52.16
2019-04-07T07:19:45.920Z,51.46
2019-04-07T07:24:56.457Z,51.28
2019-04-07T07:30:02.858Z,51.95
2019-04-07T07:35:12.594Z,50.08
2019-04-07T07:40:18.320Z,50.82
2019-04-07T07:45:25.089Z,48.79
2019-04-07T07:50:38.087Z,49.04
2019-04-07T07:55:44.492Z,48.35
2019-04-07T08:00:50.639Z,47.95
2019-04-07T08:05:57.865Z,47.78
2019-04-07T08:11:05.822Z,48.04
2019-04-07T08:16:12.305Z,48.75
2019-04-07T08:21:19.959Z,47.10
2019-04-07T08:26:26.072Z,45.24
2019-04-07T08:31:32.691Z,44.66
2019-04-07T08:36:42.500Z,45.40
2019-04-07T08:41:47.188Z,44.49
2019-04-07T08:46:55.860Z,43.02
2019-04-07T08:52:08.022Z,42.04
2019-04-07T08:57:10.935Z,41.00
2019-04-07T09:02:19.004Z,39.94
2019-04-07T09:07:27.681Z,40.87
2019-04-07T09:12:35.003Z,41.47
2019-04-07T09:17:47.444Z,41.30
2019-04-07T09:23:16.012Z,41.23
2019-04-07T09:28:45.427Z,42.96
2019-04-07T09:34:13.641Z,41.85
2019-04-07T09:39:53.977Z,41.26
2019-04-07T09:45:00.330Z,41.14
2019-04-07T09:50:35.456Z,40.82
2019-04-07T09:56:09.930Z,40.15
2019-04-07T10:01:37.219Z,40.49
2019-04-07T10:07:03.662Z,39.67
2019-04-07T10:12:18.505Z,40.32
2019-04-07T10:17:34.146Z,39.29
2019-04-07T10:23:03.071Z,39.49
2019-04-07T10:28:32.386Z,38.73
2019-04-07T10:34:06.166Z,39.38
2019-04-07T10:39:39.156Z,38.64
2019-04-07T10:45:09.003Z,39.09
2019-04-07T10:50:38.374Z,39.36
2019-04-07T10:55:58.917Z,39.07
2019-04-07T11:01:43.573Z,38.51
2019-04-07T11:07:14.551Z,39.58
2019-04-07T11:18:58.521Z,39.73
2019-04-07T11:24:44.653Z,39.53
2019-04-07T11:30:15.977Z,37.88
2019-04-07T11:35:32.390Z,38.03
2019-04-07T11:40:51.155Z,38.51
2019-04-07T11:46:06.881Z,37.63
2019-04-07T11:51:50.689Z,37.09
2019-04-07T11:57:22.581Z,37.23
2019-04-07T12:02:54.517Z,36.78
2019-04-07T12:08:36.174Z,36.41
2019-04-07T12:13:57.295Z,36.93
2019-04-07T12:19:14.804Z,38.20
2019-04-07T12:24:57.535Z,36.44
2019-04-07T12:30:34.329Z,36.91
2019-04-07T12:35:56.225Z,35.27
2019-04-07T12:41:35.937Z,35.46
2019-04-07T12:47:03.716Z,33.72
2019-04-07T12:52:36.670Z,34.21
2019-04-07T12:57:56.925Z,36.90
2019-04-07T13:03:36.459Z,37.75
2019-04-07T13:08:58.214Z,37.42
2019-04-07T13:14:30.648Z,36.75
2019-04-07T13:19:51.415Z,36.00
2019-04-07T13:25:18.708Z,36.29
2019-04-07T13:30:39.404Z,34.67
2019-04-07T13:35:56.311Z,37.32
2019-04-07T13:41:20.310Z,35.37
2019-04-07T13:46:38.902Z,35.12
2019-04-07T13:51:53.259Z,35.40
2019-04-07T13:57:23.860Z,35.02
2019-04-07T14:02:59.310Z,34.29
2019-04-07T14:08:13.907Z,33.83
2019-04-07T14:13:40.395Z,34.77
2019-04-07T14:19:03.955Z,34.88
2019-04-07T14:24:23.898Z,35.40
2019-04-07T14:30:06.545Z,35.46
2019-04-07T14:35:34.800Z,36.78
2019-04-07T14:41:09.690Z,37.53
2019-04-07T14:46:33.759Z,36.32
2019-04-07T14:52:13.415Z,36.53
2019-04-07T14:57:35.143Z,36.86
2019-04-07T15:02:41.786Z,36.68
2019-04-07T15:08:11.677Z,37.70
2019-04-07T15:13:25.796Z,37.94
2019-04-07T15:18:29.776Z,38.68
2019-04-07T15:23:36.854Z,37.82
2019-04-07T15:28:43.637Z,37.48
2019-04-07T15:33:53.323Z,37.54
2019-04-07T15:39:01.291Z,38.40
2019-04-07T15:44:12.923Z,38.72
2019-04-07T15:49:16.882Z,38.50
2019-04-07T15:54:25.297Z,38.97
2019-04-07T15:59:31.741Z,39.01
2019-04-07T16:04:40.789Z,39.41
2019-04-07T16:09:52.541Z,39.40
2019-04-07T16:14:54.781Z,39.45
2019-04-07T16:20:02.411Z,39.69
2019-04-07T16:25:11.465Z,39.62
2019-04-07T16:30:29.011Z,39.90
2019-04-07T16:35:39.843Z,40.09
2019-04-07T16:40:46.732Z,40.15
2019-04-07T16:45:54.726Z,39.92
2019-04-07T16:51:03.181Z,39.88
2019-04-07T16:56:11.306Z,39.57
2019-04-07T17:01:18.512Z,40.08
2019-04-07T17:06:31.349Z,39.99
2019-04-07T17:11:37.865Z,40.73
2019-04-07T17:16:45.393Z,40.90
2019-04-07T17:21:51.899Z,41.48
2019-04-07T17:27:03.139Z,41.05
2019-04-07T17:32:12.240Z,40.51
2019-04-07T17:37:25.362Z,41.41
2019-04-07T17:42:34.831Z,41.88
2019-04-07T17:48:02.961Z,41.93
2019-04-07T17:53:32.999Z,42.69
2019-04-07T17:58:58.725Z,43.27
2019-04-07T18:04:24.991Z,43.70
2019-04-07T18:09:53.295Z,44.59
2019-04-07T18:15:18.581Z,44.74
2019-04-07T18:20:42.655Z,44.98
2019-04-07T18:25:58.754Z,45.61
2019-04-07T18:31:29.310Z,45.61
2019-04-07T18:37:15.783Z,45.81
2019-04-07T18:42:49.022Z,46.11
2019-04-07T18:48:19.144Z,46.15
2019-04-07T18:53:43.539Z,46.42
2019-04-07T18:59:00.200Z,46.23
2019-04-07T19:04:28.138Z,45.79
2019-04-07T19:10:06.435Z,45.27
2019-04-07T19:15:24.026Z,47.99
2019-04-07T19:21:09.053Z,45.35
2019-04-07T19:26:41.085Z,44.59
2019-04-07T19:32:04.497Z,52.34
2019-04-07T19:37:22.940Z,44.74
2019-04-07T19:42:49.523Z,45.33
2019-04-07T19:48:17.654Z,45.67
2019-04-07T19:53:45.578Z,45.70
2019-04-07T19:59:18.048Z,46.03
2019-04-07T20:04:44.148Z,46.09
2019-04-07T20:10:01.094Z,46.72
2019-04-07T20:15:36.069Z,47.00
2019-04-07T20:20:57.217Z,46.56
2019-04-07T20:26:24.841Z,47.33
2019-04-07T20:31:54.596Z,47.49
2019-04-07T20:37:17.208Z,47.77
2019-04-07T20:42:38.846Z,47.86
2019-04-07T20:48:03.728Z,48.59
2019-04-07T20:53:46.932Z,48.42
2019-04-07T21:05:27.056Z,49.68
2019-04-07T21:10:53.933Z,48.72
2019-04-07T21:16:17.711Z,50.17
2019-04-07T21:21:46.493Z,50.27
2019-04-07T21:27:14.414Z,50.55
2019-04-07T21:32:42.009Z,50.17
2019-04-07T21:38:20.835Z,49.97
2019-04-07T21:43:55.450Z,50.54
2019-04-07T21:49:35.382Z,50.56
2019-04-07T21:54:58.015Z,50.38
2019-04-07T22:00:34.961Z,50.93
2019-04-07T22:05:54.470Z,51.22
2019-04-07T22:11:00.048Z,51.29
2019-04-07T22:16:08.580Z,51.65
2019-04-07T22:21:14.944Z,51.82
2019-04-07T22:26:22.153Z,51.84
2019-04-07T22:31:33.207Z,51.40
2019-04-07T22:36:41.657Z,53.73
2019-04-07T22:41:48.596Z,53.00
2019-04-07T22:46:54.640Z,52.41
2019-04-07T22:52:01.985Z,52.94
2019-04-07T22:57:10.302Z,54.33
2019-04-07T23:02:15.893Z,53.87
2019-04-07T23:07:25.334Z,54.18
2019-04-07T23:12:32.787Z,55.45
2019-04-07T23:17:43.716Z,55.93
2019-04-07T23:22:49.970Z,55.66
2019-04-07T23:27:56.500Z,54.97
2019-04-07T23:33:04.210Z,55.89
2019-04-07T23:38:12.247Z,56.20
2019-04-07T23:43:17.897Z,56.13
2019-04-07T23:48:24.301Z,56.08
2019-04-07T23:54:09.143Z,56.82
2019-04-07T23:59:16.775Z,57.46
